Reno, NV

5:34 AM PDT on September 01, 2014 (GMT -0700)
MidTown | Change Station
CLOSE
Current Station
Personal Weather Station
Location: Reno, NV
Elevation: 4491 ft
Nearby Weather Stations

Elev 4491 ft 39.52 °N, 119.81 °W | Updated 4 minutes ago

Clear
Clear
61.5 °F
Feels Like 61.5 °F
N
-
Wind Variable Wind from North

Today
High -- | Low -- °F
--% Chance of Precip.
Yesterday
High -- | Low -- °F
Precip. -- in
6:27 AM 7:30 PM
Waxing Crescent, 40% visible
Pressure 29.91 in
Visibility 10.0 miles
Clouds Clear
Dew Point 36 °F
Humidity 38%
Rainfall 0.00 in
Snow Depth 0 in
UV 0.0 out of 12
Pollen 8.10 out of 12
Air Quality Not available.
Flu Activity Not available.
METAR KRNO 011155Z 00000KT 10SM CLR 14/03 A3007 RMK AO2 SLP129 T01440033 10239 20144 52003

More Conditions Fewer Conditions

Pressure 29.91 in
Visibility 10.0 miles
Clouds Clear
Dew Point 36 °F
Humidity 38%
Rainfall 0.00 in
Snow Depth 0 in
UV 0.0 out of 12
Pollen 8.10 out of 12
Air Quality Not available.
Flu Activity Not available.
METAR KRNO 011155Z 00000KT 10SM CLR 14/03 A3007 RMK AO2 SLP129 T01440033 10239 20144 52003

More Conditions Fewer Conditions

10-Day Weather Forecast

Almanac

Astronomy

Sep. 01, 2014 Rise Set
Actual Time 6:27 AM PDT 7:30 PM PDT
Civil Twilight 6:00 AM PDT 7:57 PM PDT
Nautical Twilight 5:27 AM PDT 8:30 PM PDT
Astronomical Twilight 4:52 AM PDT 9:04 PM PDT
Moon 1:16 PM PDT 11:37 PM PDT
Length of Visible Light 13h 57m
Length of Day
13h 02m
Tomorrow will be 2m 30s shorter.
Waxing Crescent, 40% of the Moon is Illuminated
Today
Waxing Crescent
Sep 2
First Quarter
Sep 8
Full
Sep 15
Last Quarter
Sep 24
New

Today's Extremes

State Highs State Lows

Community

WunderPhotos

Upload Photos

1,749,199 photos uploaded!

Nearby

Snow Depth

Station Depth Elevation
Mt. Rose Ski Area 0 in 8850 ft
Marlette Lake 0 in 8000 ft
Big Creek Summit 1 in 8700 ft
Lewis Peak 0 in 7400 ft
Lamance Creek 1 in 6000 ft

Earthquake Activity

City Distance Mag. Time & Date
No recent earthquake activity has been reported nearby.
Minimum magnitude displayed is 2.5.

Coastal Water Temperatures

Place Temperature
No Stations Reporting

Nearby Weather Stations